Hovedside
METAR-TAF:

METAR-TAF

Lufthavner :

Larnaka internasjonale lufthavn

Larnaka, Kypros

breddegrad: 34-53N, lengdegrad: 033-38E, høyde over havet: 2 m

Gjeldene værobservasjon

Denne rapporten ble laget for 19 minutter siden, klokken 17:30 UTC
Vind 13 kt fra Nord
Temperatur 28°C
Luftfuktighet 55%
Trykk 1008 hPa
Sikt 10 km eller mer
Få skyer i en høyde av 2500 ft

METAR: LCLK 231730Z 35013KT 9999 FEW025 28/18 Q1008 NOSIG

Tid: 20:49 (17:49 UTC)

Varsel

Denne rapporten ble laget for 19 minutter siden, klokken 17:30 UTC
Varsel gyldig fra 23. klokken 18 UTC til 24. klokken 18 UTC
Vind 8 kt fra Nordvest
Sikt 10 km eller mer
Få skyer i en høyde av 2000 ft
Blir
fra 24. klokken 08 UTC til 24. klokken 11 UTC
Vind 18 kt fra Sørvest

TAF: LCLK 231730Z 2318/2418 32008KT 9999 FEW020 BECMG 2408/2411 22018KT

Værobservasjoner og værvarsel for over 4000 flyplasser (METAR- og TAF-rapporter).

Tilgjengelige stasjoner er representert av de røde og gule prikkene på kartet.

Hold musepekeren over prikken for å se navnet på stasjonen.

Klikk så for å se værobservasjoner og -varsler.

For å forandre kartet kan du klikke på den grønne knappen med svart kryss for å zoome inn, på den grønne knappen med strek for å zoome ut, eller på de grønne pilene for å se tilstøtende kart.


METAR-TAF: